Terminal Aerodrome Forecast
Issued by NWS

Home | Current Version | Previous Version | Text Only | Print | Product List | Glossary On
Versions: 1 2 3 4 5 6 7 8 9 10 11 12 13
428
FTUS44 KLZK 051725
TAFBPK
TAF
KBPK 051725Z 0518/0618 24006KT P6SM OVC250
     FM060000 18003KT P6SM SCT250
     FM061500 21004KT P6SM BKN250=

USA.gov is the U.S. government's official web portal to all federal, state and local government web resources and services.